Time;durP1;ratioP1;P1;durP2;ratioP2;P2;SDS_P1;SDS_P2;PMS_P1;PMS_P2;Temp;Humidity;BMP_temperature;BMP_pressure;BME280_temperature;BME280_humidity;BME280_pressure;Samples;Min_cycle;Max_cycle;Signal;HPM_P1;HPM_P2
2023/09/20 00:00:10;;;;;;;7.57;6.33;;;;;;;19.72;100.00;95079.72;5113080;28;20448;-82
2023/09/20 00:02:40;;;;;;;8.53;6.53;;;;;;;19.70;100.00;95081.75;5113023;28;20532;-82
2023/09/20 00:05:12;;;;;;;9.97;7.20;;;;;;;19.70;100.00;95081.75;5112926;28;20484;-82
2023/09/20 00:07:40;;;;;;;7.67;6.63;;;;;;;19.71;100.00;95083.41;5113030;28;20550;-83
2023/09/20 00:10:12;;;;;;;6.30;5.73;;;;;;;19.70;100.00;95073.75;5113164;28;20471;-82
2023/09/20 00:12:39;;;;;;;6.97;6.27;;;;;;;19.69;100.00;95074.75;5113036;28;20443;-82
2023/09/20 00:15:09;;;;;;;7.83;6.20;;;;;;;19.70;100.00;95086.25;5113028;28;20446;-82
2023/09/20 00:17:36;;;;;;;9.37;6.70;;;;;;;19.67;100.00;95083.94;5116870;28;20439;-82
2023/09/20 00:20:11;;;;;;;6.63;5.80;;;;;;;19.64;100.00;95076.28;5117091;28;20439;-82
2023/09/20 00:22:40;;;;;;;7.40;5.90;;;;;;;19.63;100.00;95080.78;5083362;28;20806;-81
2023/09/20 00:25:07;;;;;;;6.57;5.97;;;;;;;19.65;100.00;95080.59;5117192;28;20442;-83
2023/09/20 00:27:34;;;;;;;7.10;6.50;;;;;;;19.65;100.00;95078.78;5117201;28;20918;-82
2023/09/20 00:30:01;;;;;;;6.67;6.07;;;;;;;19.63;100.00;95078.13;5116931;28;20449;-82
2023/09/20 00:32:30;;;;;;;7.00;6.30;;;;;;;19.58;100.00;95083.16;5117339;28;20492;-82
2023/09/20 00:34:57;;;;;;;8.10;5.90;;;;;;;19.55;100.00;95083.53;5116866;28;20524;-82
2023/09/20 00:37:24;;;;;;;10.50;6.23;;;;;;;19.52;100.00;95089.19;5116821;28;20481;-82
2023/09/20 00:39:51;;;;;;;5.97;5.30;;;;;;;19.39;100.00;95089.00;5117073;28;20437;-83
2023/09/20 00:42:17;;;;;;;6.27;5.70;;;;;;;19.30;100.00;95095.34;5116706;28;20944;-82
2023/09/20 00:44:44;;;;;;;6.27;5.67;;;;;;;19.18;100.00;95097.63;5116810;28;20831;-82
2023/09/20 00:47:14;;;;;;;7.53;6.03;;;;;;;19.03;100.00;95091.41;5116578;28;20485;-82
2023/09/20 00:49:45;;;;;;;6.70;6.10;;;;;;;18.93;100.00;95094.28;5116554;28;20442;-82
2023/09/20 00:52:13;;;;;;;6.80;5.70;;;;;;;18.92;100.00;95087.31;5116596;27;20436;-82
2023/09/20 00:54:42;;;;;;;6.53;5.93;;;;;;;18.94;100.00;95095.13;5116546;28;20450;-82
2023/09/20 00:57:10;;;;;;;6.87;5.80;;;;;;;18.94;100.00;95092.47;5116617;28;20457;-82
2023/09/20 00:59:39;;;;;;;5.93;5.47;;;;;;;18.96;100.00;95087.81;5116342;28;20459;-82
2023/09/20 01:02:07;;;;;;;6.37;5.83;;;;;;;18.98;100.00;95091.94;5116438;28;20448;-82
2023/09/20 01:04:35;;;;;;;6.53;5.90;;;;;;;19.03;100.00;95092.22;5116203;28;20478;-82
2023/09/20 01:07:03;;;;;;;7.47;6.30;;;;;;;19.07;100.00;95101.50;5116389;28;20568;-82
2023/09/20 01:09:30;;;;;;;6.43;5.83;;;;;;;19.04;100.00;95098.38;5116355;28;20471;-82
2023/09/20 01:11:57;;;;;;;6.60;5.87;;;;;;;18.94;100.00;95098.63;5116315;28;20486;-82
2023/09/20 01:14:25;;;;;;;10.83;6.63;;;;;;;18.94;100.00;95095.97;5116059;28;20439;-82
2023/09/20 01:16:53;;;;;;;7.50;6.80;;;;;;;18.82;100.00;95084.06;5116051;28;20440;-82
2023/09/20 01:19:20;;;;;;;7.03;6.10;;;;;;;18.70;100.00;95088.94;5097449;28;20442;-82
2023/09/20 01:21:49;;;;;;;8.00;5.67;;;;;;;18.67;100.00;95091.97;5080053;28;20436;-82
2023/09/20 01:24:19;;;;;;;9.40;5.80;;;;;;;18.66;100.00;95094.78;5116108;28;20518;-82
2023/09/20 01:26:49;;;;;;;7.20;6.07;;;;;;;18.69;100.00;95095.28;5097250;28;20561;-82
2023/09/20 01:29:16;;;;;;;7.97;5.80;;;;;;;18.72;100.00;95094.91;5115131;28;21027;-82
2023/09/20 01:31:42;;;;;;;5.63;5.00;;;;;;;18.73;100.00;95082.44;5115815;28;20435;-82
2023/09/20 01:34:10;;;;;;;7.53;6.33;;;;;;;18.76;100.00;95084.75;5115920;28;20520;-82
2023/09/20 01:36:37;;;;;;;6.77;6.07;;;;;;;18.75;100.00;95080.44;5116060;28;20455;-82
2023/09/20 01:39:08;;;;;;;6.60;6.00;;;;;;;18.75;100.00;95091.06;5096710;28;20451;-82
2023/09/20 01:41:35;;;;;;;6.37;5.77;;;;;;;18.76;100.00;95093.56;5115767;28;20472;-82
2023/09/20 01:44:03;;;;;;;5.50;5.00;;;;;;;18.78;100.00;95098.69;5115610;28;20446;-83
2023/09/20 01:46:33;;;;;;;12.33;5.30;;;;;;;18.80;100.00;95099.38;5115903;28;20514;-82
2023/09/20 01:49:00;;;;;;;7.67;5.73;;;;;;;18.81;100.00;95098.38;5115436;28;20443;-82
2023/09/20 01:51:27;;;;;;;9.23;5.93;;;;;;;18.82;100.00;95110.66;5115407;28;20453;-82
2023/09/20 01:53:55;;;;;;;8.90;5.60;;;;;;;18.84;100.00;95100.69;5115455;28;20446;-82
2023/09/20 01:56:26;;;;;;;6.70;5.20;;;;;;;18.87;100.00;95105.66;5115607;28;20516;-83
2023/09/20 01:58:53;;;;;;;5.73;5.20;;;;;;;18.93;100.00;95107.59;5115257;28;20478;-82
2023/09/20 02:01:20;;;;;;;5.93;5.40;;;;;;;18.95;100.00;95102.94;5115507;28;20549;-82
2023/09/20 02:03:49;;;;;;;5.77;5.17;;;;;;;19.00;100.00;95094.41;5115780;27;20534;-82
2023/09/20 02:06:16;;;;;;;5.70;5.30;;;;;;;18.96;100.00;95088.63;5115347;28;20545;-82
2023/09/20 02:08:43;;;;;;;9.50;5.80;;;;;;;18.99;100.00;95093.59;5115056;28;20431;-82
2023/09/20 02:11:09;;;;;;;5.60;5.10;;;;;;;18.95;100.00;95092.28;5115514;28;20975;-82
2023/09/20 02:13:38;;;;;;;6.77;6.07;;;;;;;18.94;100.00;95095.97;5115555;28;20439;-82
2023/09/20 02:16:06;;;;;;;6.43;5.83;;;;;;;18.93;100.00;95094.28;5115489;28;20443;-82
2023/09/20 02:18:33;;;;;;;9.23;5.93;;;;;;;18.94;100.00;95089.81;5115323;28;20475;-82
2023/09/20 02:21:00;;;;;;;7.33;5.63;;;;;;;18.95;100.00;95091.47;5114931;28;20512;-82
2023/09/20 02:23:27;;;;;;;8.07;6.30;;;;;;;18.93;100.00;95091.63;5115113;28;20536;-82
2023/09/20 02:25:55;;;;;;;12.87;7.03;;;;;;;18.91;100.00;95093.66;5079033;28;20435;-81
2023/09/20 02:28:22;;;;;;;9.60;7.10;;;;;;;18.89;100.00;95093.00;5115154;28;20441;-82
2023/09/20 02:30:50;;;;;;;14.83;7.20;;;;;;;18.91;100.00;95090.16;5115293;28;20452;-82
2023/09/20 02:33:19;;;;;;;8.37;7.10;;;;;;;18.91;100.00;95091.00;5114813;28;20446;-82
2023/09/20 02:35:46;;;;;;;6.97;6.27;;;;;;;18.95;100.00;95094.13;5114738;27;20527;-82
2023/09/20 02:38:12;;;;;;;8.63;7.13;;;;;;;18.92;100.00;95097.97;5114601;28;20440;-82
2023/09/20 02:40:39;;;;;;;10.53;7.70;;;;;;;18.88;100.00;95104.66;5077776;28;20450;-82
2023/09/20 02:43:08;;;;;;;9.60;7.27;;;;;;;18.88;100.00;95108.13;5114520;28;20444;-82
2023/09/20 02:45:36;;;;;;;10.00;6.90;;;;;;;18.86;100.00;95104.81;5114556;28;20959;-82
2023/09/20 02:48:07;;;;;;;9.83;7.67;;;;;;;18.79;100.00;95103.00;5114546;28;20474;-82
2023/09/20 02:50:34;;;;;;;11.10;7.40;;;;;;;18.76;100.00;95108.69;5114426;28;20468;-82
2023/09/20 02:53:01;;;;;;;10.10;8.20;;;;;;;18.78;100.00;95106.69;5114463;28;20444;-82
2023/09/20 02:55:28;;;;;;;12.27;7.60;;;;;;;18.77;100.00;95105.03;5114603;28;20456;-82
2023/09/20 02:57:55;;;;;;;16.63;7.57;;;;;;;18.75;100.00;95107.03;5114272;28;20445;-81
2023/09/20 03:00:27;;;;;;;8.97;8.07;;;;;;;18.72;100.00;95110.88;5114412;28;20440;-82
2023/09/20 03:02:57;;;;;;;11.13;7.83;;;;;;;18.71;100.00;95105.72;5071757;28;20464;-82
2023/09/20 03:05:28;;;;;;;8.47;7.67;;;;;;;18.72;100.00;95110.03;5076497;28;20442;-82
2023/09/20 03:07:55;;;;;;;9.67;8.67;;;;;;;18.69;100.00;95107.72;5073575;28;20485;-82
2023/09/20 03:10:22;;;;;;;12.27;8.37;;;;;;;18.73;100.00;95117.00;5070945;28;20468;-82
2023/09/20 03:12:51;;;;;;;9.67;8.23;;;;;;;18.71;100.00;95108.38;5073334;28;20449;-82
2023/09/20 03:15:21;;;;;;;13.33;10.00;;;;;;;18.70;100.00;95112.03;5073362;28;20443;-82
2023/09/20 03:17:49;;;;;;;15.37;10.43;;;;;;;18.65;100.00;95107.25;5073117;28;20481;-82
2023/09/20 03:20:22;;;;;;;12.07;8.87;;;;;;;18.65;100.00;95109.91;5073110;28;20449;-82
2023/09/20 03:22:51;;;;;;;12.00;9.20;;;;;;;18.62;100.00;95114.72;5073274;28;20512;-82
2023/09/20 03:25:19;;;;;;;14.37;9.80;;;;;;;18.59;100.00;95110.59;5073345;28;20448;-82
2023/09/20 03:27:48;;;;;;;10.07;8.90;;;;;;;18.61;100.00;95111.22;5073410;28;20485;-82
2023/09/20 03:30:16;;;;;;;12.90;10.23;;;;;;;18.59;100.00;95113.25;5072963;28;20446;-82
2023/09/20 03:32:44;;;;;;;11.60;9.70;;;;;;;18.60;100.00;95114.06;5071008;28;20810;-82
2023/09/20 03:35:12;;;;;;;14.43;9.90;;;;;;;18.48;100.00;95103.81;5070996;28;20434;-82
2023/09/20 03:37:40;;;;;;;10.93;8.60;;;;;;;18.49;100.00;95113.44;5072946;28;20446;-82
2023/09/20 03:40:10;;;;;;;13.23;9.07;;;;;;;18.55;100.00;95112.75;5072896;28;20446;-82
2023/09/20 03:42:38;;;;;;;9.53;8.00;;;;;;;18.50;100.00;95114.25;5073057;28;20435;-82
2023/09/20 03:45:06;;;;;;;9.83;7.77;;;;;;;18.48;100.00;95111.78;5072681;28;20501;-82
2023/09/20 03:47:33;;;;;;;11.20;8.30;;;;;;;18.42;100.00;95107.16;5073108;28;20493;-82
2023/09/20 03:50:00;;;;;;;9.53;7.73;;;;;;;18.44;100.00;95105.16;5072578;28;20438;-82
2023/09/20 03:52:27;;;;;;;11.70;7.20;;;;;;;18.47;100.00;95104.81;5072340;28;20438;-81
2023/09/20 03:54:54;;;;;;;10.50;8.00;;;;;;;18.46;100.00;95102.31;5072557;28;20457;-82
2023/09/20 03:57:24;;;;;;;8.37;7.43;;;;;;;18.46;100.00;95108.47;5072679;28;20975;-82
2023/09/20 03:59:52;;;;;;;13.03;8.23;;;;;;;18.42;100.00;95104.50;5054229;28;20457;-82
2023/09/20 04:02:19;;;;;;;11.37;7.67;;;;;;;18.40;100.00;95103.03;5072479;28;20511;-82
2023/09/20 04:04:46;;;;;;;10.03;7.40;;;;;;;18.36;100.00;95101.72;5072543;28;20445;-82
2023/09/20 04:07:12;;;;;;;12.53;6.10;;;;;;;18.33;100.00;95099.41;5072584;28;20489;-82
2023/09/20 04:09:39;;;;;;;6.03;5.53;;;;;;;18.22;100.00;95100.63;5036802;28;20982;-82
2023/09/20 04:12:07;;;;;;;7.53;5.87;;;;;;;18.19;100.00;95114.22;5072482;28;20439;-82
2023/09/20 04:14:35;;;;;;;7.27;6.73;;;;;;;18.06;100.00;95112.09;5072539;28;20446;-82
2023/09/20 04:17:04;;;;;;;6.40;5.20;;;;;;;17.95;100.00;95104.53;5072714;28;20457;-82
2023/09/20 04:19:31;;;;;;;13.20;6.40;;;;;;;17.90;100.00;95107.66;5072341;28;20479;-82
2023/09/20 04:21:58;;;;;;;13.77;5.57;;;;;;;17.90;100.00;95112.97;5072340;28;20450;-82
2023/09/20 04:24:26;;;;;;;13.70;6.73;;;;;;;17.85;100.00;95109.16;5072679;28;20444;-82
2023/09/20 04:26:53;;;;;;;7.67;5.70;;;;;;;17.80;100.00;95114.16;5072539;28;20574;-82
2023/09/20 04:29:20;;;;;;;9.80;5.90;;;;;;;17.77;100.00;95106.53;5072591;28;20435;-82
2023/09/20 04:31:49;;;;;;;11.67;5.87;;;;;;;17.75;100.00;95104.06;5072161;28;20457;-82
2023/09/20 04:34:16;;;;;;;9.53;6.20;;;;;;;17.71;100.00;95105.38;5072435;28;20440;-82
2023/09/20 04:36:44;;;;;;;5.77;5.13;;;;;;;17.67;100.00;95106.72;5072244;28;20522;-82
2023/09/20 04:39:11;;;;;;;6.50;5.77;;;;;;;17.67;100.00;95104.06;5070257;28;20843;-82
2023/09/20 04:41:38;;;;;;;6.60;5.13;;;;;;;17.68;100.00;95104.91;5072135;28;20444;-82
2023/09/20 04:44:05;;;;;;;9.13;6.00;;;;;;;17.75;100.00;95117.31;5072348;28;20448;-81
2023/09/20 04:46:34;;;;;;;8.67;6.67;;;;;;;17.80;100.00;95122.94;5072428;28;20437;-82
2023/09/20 04:49:03;;;;;;;6.10;5.57;;;;;;;17.84;100.00;95126.91;5072257;28;20481;-82
2023/09/20 04:51:30;;;;;;;8.00;5.87;;;;;;;17.89;100.00;95121.09;5072077;28;20931;-82
2023/09/20 04:53:57;;;;;;;5.93;5.43;;;;;;;17.95;100.00;95125.75;5071960;28;20996;-82
2023/09/20 04:56:24;;;;;;;6.10;5.33;;;;;;;17.94;100.00;95124.94;5072423;28;20469;-82
2023/09/20 04:58:51;;;;;;;12.20;5.57;;;;;;;18.02;100.00;95123.25;5072204;28;20442;-82
2023/09/20 05:01:18;;;;;;;9.27;5.60;;;;;;;18.04;100.00;95126.56;5070282;28;20459;-82
2023/09/20 05:03:50;;;;;;;10.63;5.80;;;;;;;18.07;100.00;95128.88;5073762;28;20449;-82
2023/09/20 05:06:18;;;;;;;6.90;6.07;;;;;;;18.09;100.00;95124.22;5075709;28;20527;-82
2023/09/20 05:08:45;;;;;;;12.13;5.67;;;;;;;18.10;100.00;95133.84;5075641;28;20478;-82
2023/09/20 05:11:13;;;;;;;5.73;5.23;;;;;;;18.10;100.00;95133.84;5075843;28;20478;-82
2023/09/20 05:13:41;;;;;;;6.13;5.30;;;;;;;18.09;100.00;95137.50;5075506;28;20452;-82
2023/09/20 05:16:08;;;;;;;13.27;5.70;;;;;;;18.13;100.00;95138.81;5075626;28;20460;-82
2023/09/20 05:18:34;;;;;;;7.93;6.17;;;;;;;18.16;100.00;95143.78;5075408;28;20453;-82
2023/09/20 05:21:02;;;;;;;5.90;5.40;;;;;;;18.21;100.00;95144.09;5039930;28;20435;-82
2023/09/20 05:23:30;;;;;;;8.00;6.40;;;;;;;18.29;100.00;95154.72;5056864;28;20443;-82
2023/09/20 05:25:57;;;;;;;11.03;8.00;;;;;;;18.35;100.00;95147.88;5075574;28;21032;-82
2023/09/20 05:28:25;;;;;;;11.13;8.83;;;;;;;18.36;100.00;95149.53;5040019;28;20560;-81
2023/09/20 05:30:52;;;;;;;12.83;10.60;;;;;;;18.41;100.00;95148.03;5075586;28;20442;-82
2023/09/20 05:33:19;;;;;;;15.10;11.27;;;;;;;18.40;100.00;95150.84;5075097;28;20490;-82
2023/09/20 05:35:47;;;;;;;14.53;10.60;;;;;;;18.40;100.00;95154.34;5075145;28;20808;-82
2023/09/20 05:38:15;;;;;;;15.63;11.33;;;;;;;18.44;100.00;95153.00;5075243;28;20444;-82
2023/09/20 05:40:44;;;;;;;18.13;12.87;;;;;;;18.46;100.00;95156.31;5039820;28;20434;-82
2023/09/20 05:43:11;;;;;;;23.40;14.13;;;;;;;18.47;100.00;95163.28;5072881;28;20522;-82
2023/09/20 05:45:37;;;;;;;20.60;14.13;;;;;;;18.50;100.00;95167.41;5075387;28;20438;-82
2023/09/20 05:48:06;;;;;;;22.20;11.80;;;;;;;18.47;100.00;95168.59;5074838;28;20492;-82
2023/09/20 05:50:34;;;;;;;20.20;12.70;;;;;;;18.41;100.00;95168.44;5075306;28;20445;-82
2023/09/20 05:53:01;;;;;;;16.40;12.10;;;;;;;18.44;100.00;95179.56;5074794;28;20578;-82
2023/09/20 05:55:31;;;;;;;15.20;10.30;;;;;;;18.40;100.00;95186.22;5074878;28;20442;-82
2023/09/20 05:58:00;;;;;;;12.20;10.20;;;;;;;18.34;100.00;95180.75;5074714;28;20975;-82
2023/09/20 06:00:29;;;;;;;19.23;11.40;;;;;;;18.19;100.00;95180.63;5074624;28;20523;-82
2023/09/20 06:02:56;;;;;;;26.33;10.57;;;;;;;18.15;100.00;95182.78;5074706;28;20444;-82
2023/09/20 06:05:25;;;;;;;12.37;10.47;;;;;;;18.12;100.00;95184.97;5074586;28;20525;-82
2023/09/20 06:07:53;;;;;;;19.30;13.10;;;;;;;18.10;100.00;95189.63;5074490;28;20486;-82
2023/09/20 06:10:22;;;;;;;19.57;11.90;;;;;;;18.08;100.00;95194.28;5074725;28;20552;-82
2023/09/20 06:12:49;;;;;;;24.83;11.63;;;;;;;18.09;100.00;95195.94;5074350;28;20441;-82
2023/09/20 06:15:17;;;;;;;20.80;14.60;;;;;;;18.08;100.00;95191.63;5074242;28;20512;-82
2023/09/20 06:17:47;;;;;;;15.33;12.33;;;;;;;18.05;100.00;95190.13;5055801;28;20450;-82
2023/09/20 06:20:19;;;;;;;19.10;13.33;;;;;;;18.03;100.00;95191.28;5074500;28;20993;-82
2023/09/20 06:22:46;;;;;;;17.70;12.70;;;;;;;18.01;100.00;95188.81;5074386;28;20441;-82
2023/09/20 06:25:13;;;;;;;17.90;13.80;;;;;;;18.07;100.00;95192.63;5074148;28;20453;-82
2023/09/20 06:27:40;;;;;;;17.20;12.53;;;;;;;18.15;100.00;95195.25;5074489;28;20480;-82
2023/09/20 06:30:13;;;;;;;14.83;13.00;;;;;;;18.16;100.00;95191.59;5074442;28;20478;-82
2023/09/20 06:32:42;;;;;;;27.83;15.60;;;;;;;18.21;100.00;95190.09;5074230;28;20444;-82
2023/09/20 06:35:10;;;;;;;17.80;13.70;;;;;;;18.32;100.00;95190.75;5073909;28;20495;-82
2023/09/20 06:37:37;;;;;;;43.57;12.83;;;;;;;18.42;100.00;95191.38;5074484;28;20449;-83
2023/09/20 06:40:12;;;;;;;17.63;12.00;;;;;;;18.58;100.00;95197.47;5074119;28;20446;-82
2023/09/20 06:42:41;;;;;;;17.23;11.87;;;;;;;18.73;100.00;95196.78;5074103;28;20449;-82
2023/09/20 06:45:08;;;;;;;14.53;11.37;;;;;;;18.73;100.00;95186.13;5071848;28;20452;-82
2023/09/20 06:47:35;;;;;;;13.80;11.00;;;;;;;18.83;100.00;95194.75;5073789;28;21017;-83
2023/09/20 06:50:03;;;;;;;12.00;10.10;;;;;;;18.76;100.00;95183.97;5073600;28;20445;-83
2023/09/20 06:52:33;;;;;;;14.07;11.27;;;;;;;18.90;100.00;95195.72;5073744;28;20444;-82
2023/09/20 06:55:00;;;;;;;16.80;11.80;;;;;;;19.17;100.00;95200.56;5073908;28;20437;-82
2023/09/20 06:57:29;;;;;;;13.70;10.60;;;;;;;19.42;100.00;95197.75;5073750;28;20444;-82
2023/09/20 06:59:57;;;;;;;12.97;11.07;;;;;;;19.63;100.00;95203.25;5073584;28;20932;-83
2023/09/20 07:02:24;;;;;;;14.60;11.23;;;;;;;19.86;100.00;95207.75;5073771;28;20445;-82
2023/09/20 07:04:51;;;;;;;15.50;11.50;;;;;;;20.16;100.00;95214.81;5073689;28;20494;-82
2023/09/20 07:07:19;;;;;;;14.10;11.80;;;;;;;20.35;98.89;95221.47;5038174;28;20448;-82
2023/09/20 07:09:46;;;;;;;17.73;10.63;;;;;;;20.52;100.00;95220.31;5073370;28;20479;-83
2023/09/20 07:12:13;;;;;;;13.33;10.70;;;;;;;20.60;97.78;95227.41;5073346;28;20495;-83
2023/09/20 07:14:41;;;;;;;11.10;10.10;;;;;;;20.76;96.23;95221.88;5073148;28;20436;-83
2023/09/20 07:17:08;;;;;;;11.90;10.43;;;;;;;20.90;93.96;95221.06;5073249;28;20438;-83
2023/09/20 07:19:37;;;;;;;12.33;9.97;;;;;;;21.15;94.45;95223.41;5073421;28;20444;-83
2023/09/20 07:22:05;;;;;;;13.30;9.03;;;;;;;21.18;93.35;95223.03;5073326;28;20452;-83
2023/09/20 07:24:35;;;;;;;14.10;9.47;;;;;;;21.17;92.60;95221.38;5073051;28;20800;-83
2023/09/20 07:27:03;;;;;;;11.60;8.33;;;;;;;21.11;93.43;95219.47;5072397;28;21169;-83
2023/09/20 07:29:30;;;;;;;16.07;10.47;;;;;;;20.92;92.27;95219.03;5073273;28;20486;-83
2023/09/20 07:32:00;;;;;;;12.57;10.27;;;;;;;20.66;95.07;95214.16;5073163;28;20443;-83
2023/09/20 07:34:26;;;;;;;10.07;9.10;;;;;;;21.00;98.56;95220.75;5073101;28;20447;-83
2023/09/20 07:36:56;;;;;;;13.20;10.10;;;;;;;21.46;96.84;95221.34;5073059;28;21029;-83
2023/09/20 07:39:23;;;;;;;17.90;10.10;;;;;;;21.61;92.84;95224.78;5071026;28;20440;-82
2023/09/20 07:41:52;;;;;;;11.83;9.87;;;;;;;22.00;92.01;95220.84;5073146;28;20815;-83
2023/09/20 07:44:23;;;;;;;13.30;8.50;;;;;;;21.87;90.15;95218.06;5072808;28;20938;-83
2023/09/20 07:46:52;;;;;;;11.67;9.07;;;;;;;22.02;89.76;95223.34;5072871;28;20946;-82
2023/09/20 07:49:19;;;;;;;14.33;10.27;;;;;;;22.00;90.08;95231.56;5072952;28;21083;-83
2023/09/20 07:51:48;;;;;;;14.80;11.60;;;;;;;22.11;90.85;95227.56;5072919;28;20445;-83
2023/09/20 07:54:17;;;;;;;17.03;13.83;;;;;;;22.06;90.77;95230.81;5073075;28;20435;-83
2023/09/20 07:56:49;;;;;;;23.50;15.40;;;;;;;22.18;90.86;95225.75;5072747;28;20531;-82
2023/09/20 07:59:17;;;;;;;14.53;12.37;;;;;;;22.37;88.99;95237.63;5072816;28;20481;-83
2023/09/20 08:01:45;;;;;;;15.63;14.00;;;;;;;22.31;88.39;95244.59;5054069;28;20449;-82
2023/09/20 08:04:15;;;;;;;18.70;13.50;;;;;;;22.38;88.82;95239.28;5072800;28;20500;-83
2023/09/20 08:06:42;;;;;;;17.07;13.27;;;;;;;22.59;88.69;95236.56;5072874;28;20442;-83
2023/09/20 08:09:08;;;;;;;17.93;15.57;;;;;;;22.70;86.94;95237.88;5072374;28;20500;-83
2023/09/20 08:11:37;;;;;;;22.93;17.10;;;;;;;22.64;87.04;95235.97;5072603;28;20956;-83
2023/09/20 08:14:05;;;;;;;27.93;18.23;;;;;;;22.47;87.49;95230.09;5072584;28;20959;-83
2023/09/20 08:16:33;;;;;;;25.70;19.10;;;;;;;22.28;88.02;95228.94;5072693;28;20451;-83
2023/09/20 08:19:20;;;;;;;25.83;18.30;;;;;;;22.15;89.19;95223.47;5072598;28;20477;-83
2023/09/20 08:21:47;;;;;;;24.27;17.27;;;;;;;22.01;90.48;95219.84;5026206;28;20805;-83
2023/09/20 09:00:21;;;;;;;20.33;16.70;;;;;;;23.01;89.35;95210.69;5075793;28;20439;-82
2023/09/20 09:02:51;;;;;;;19.50;14.40;;;;;;;23.07;86.39;95212.56;5075838;28;20448;-83
2023/09/20 09:05:21;;;;;;;20.33;16.60;;;;;;;22.99;86.71;95204.72;5075731;28;20443;-83
2023/09/20 09:07:49;;;;;;;18.70;14.67;;;;;;;23.08;86.16;95206.19;5075535;28;20505;-83
2023/09/20 09:10:16;;;;;;;18.67;14.60;;;;;;;23.27;87.28;95205.44;5075540;28;20468;-82
2023/09/20 09:12:44;;;;;;;20.47;16.40;;;;;;;23.33;85.35;95201.97;5075608;28;20449;-83
2023/09/20 09:15:11;;;;;;;18.47;15.37;;;;;;;23.27;85.92;95197.41;5040397;28;20438;-83
2023/09/20 09:17:43;;;;;;;21.30;15.00;;;;;;;23.30;86.87;95190.81;5075946;28;20475;-83
2023/09/20 09:20:11;;;;;;;18.90;13.90;;;;;;;23.16;85.06;95189.97;5075374;28;20447;-83
2023/09/20 09:22:40;;;;;;;19.47;13.40;;;;;;;23.20;87.28;95188.53;5075445;28;20925;-83
2023/09/20 09:25:14;;;;;;;19.97;13.37;;;;;;;23.42;86.94;95189.22;5075451;28;20796;-83
2023/09/20 09:27:42;;;;;;;16.60;14.70;;;;;;;23.34;84.64;95200.94;5075354;28;20470;-83
2023/09/20 09:30:11;;;;;;;18.50;14.77;;;;;;;23.22;83.73;95189.16;5075264;28;20454;-83
2023/09/20 09:32:39;;;;;;;23.87;13.53;;;;;;;23.32;84.36;95189.59;5075526;28;20445;-83
2023/09/20 09:35:07;;;;;;;17.60;14.90;;;;;;;23.26;86.41;95182.38;5075329;28;20452;-83
2023/09/20 09:37:35;;;;;;;15.07;13.47;;;;;;;23.48;85.71;95185.75;5075337;28;20474;-83
2023/09/20 09:40:05;;;;;;;15.87;14.20;;;;;;;23.39;85.71;95179.72;5075271;28;20529;-83
2023/09/20 09:42:32;;;;;;;18.87;15.00;;;;;;;23.48;84.55;95183.88;5075379;28;20450;-84
2023/09/20 09:45:01;;;;;;;17.60;15.00;;;;;;;23.45;84.27;95183.47;5039915;28;20935;-83
2023/09/20 09:47:29;;;;;;;18.67;14.30;;;;;;;23.54;85.94;95176.88;5075034;28;20448;-83
2023/09/20 09:49:59;;;;;;;20.87;13.70;;;;;;;23.67;84.62;95176.09;5074323;28;20490;-82
2023/09/20 09:52:27;;;;;;;20.20;12.50;;;;;;;23.88;84.15;95175.09;5075172;28;20454;-83
2023/09/20 09:54:55;;;;;;;21.93;13.60;;;;;;;24.14;84.14;95179.66;5075182;28;20527;-83
2023/09/20 09:57:24;;;;;;;16.20;14.50;;;;;;;24.27;81.18;95176.94;5075074;28;20440;-83
2023/09/20 09:59:52;;;;;;;25.77;16.20;;;;;;;24.33;79.99;95181.53;5074593;28;20502;-82
2023/09/20 10:02:21;;;;;;;22.83;13.77;;;;;;;24.43;79.93;95181.09;5074859;28;20437;-83
2023/09/20 10:04:51;;;;;;;18.63;15.30;;;;;;;24.44;78.51;95183.59;5074846;28;20436;-83
2023/09/20 10:07:22;;;;;;;27.03;15.90;;;;;;;24.43;77.86;95175.75;5074619;28;20551;-83
2023/09/20 10:09:52;;;;;;;20.80;17.00;;;;;;;24.16;79.64;95170.38;5074652;28;20982;-83
2023/09/20 10:12:21;;;;;;;17.63;14.37;;;;;;;24.07;78.37;95171.63;5074637;28;20463;-83
2023/09/20 10:14:49;;;;;;;21.40;15.40;;;;;;;23.97;79.73;95171.19;5074927;28;20811;-83
2023/09/20 10:17:20;;;;;;;15.90;14.20;;;;;;;23.97;78.55;95166.66;5074899;28;20464;-83
2023/09/20 10:19:49;;;;;;;22.60;14.27;;;;;;;23.97;80.01;95165.81;5074590;28;20444;-83
2023/09/20 10:22:21;;;;;;;17.70;15.23;;;;;;;23.99;79.97;95167.25;5074440;28;20800;-84
2023/09/20 10:24:53;;;;;;;17.33;14.07;;;;;;;24.03;78.71;95163.16;5074278;28;20445;-83
2023/09/20 10:27:21;;;;;;;19.07;13.50;;;;;;;24.19;79.62;95161.06;5074191;28;20451;-83
2023/09/20 10:30:02;;;;;;;23.60;14.07;;;;;;;24.31;76.73;95162.16;5074259;28;20481;-83
2023/09/20 10:32:36;;;;;;;21.67;14.50;;;;;;;24.30;77.91;95155.13;5074366;28;20871;-83
2023/09/20 10:35:22;;;;;;;19.33;13.60;;;;;;;24.30;77.88;95163.19;5074327;28;20535;-83
2023/09/20 10:38:04;;;;;;;16.90;11.73;;;;;;;24.39;77.64;95148.50;5074368;28;20828;-83
2023/09/20 10:40:59;;;;;;;18.83;13.17;;;;;;;24.52;77.64;95145.78;5073996;28;20962;-83
2023/09/20 10:43:42;;;;;;;17.53;12.00;;;;;;;24.51;76.41;95141.47;5038963;28;20889;-83
2023/09/20 10:46:12;;;;;;;13.90;12.50;;;;;;;24.55;76.96;95137.31;5038886;28;20444;-83
2023/09/20 10:48:48;;;;;;;14.97;11.40;;;;;;;24.57;75.52;95129.88;5074511;28;20567;-83
2023/09/20 10:51:48;;;;;;;13.50;10.48;;;;;;;24.72;74.28;95124.28;5073813;28;20483;-83
2023/09/20 10:54:34;;;;;;;11.93;9.17;;;;;;;24.79;74.69;95113.50;5074099;28;20632;-83
2023/09/20 10:57:11;;;;;;;9.73;8.63;;;;;;;24.81;71.23;95120.31;5074694;28;20445;-83
2023/09/20 10:59:40;;;;;;;19.67;8.83;;;;;;;24.90;73.50;95099.44;5038520;28;20436;-83
2023/09/20 11:02:12;;;;;;;14.83;9.40;;;;;;;25.05;70.83;95110.75;5072547;28;20881;-83
2023/09/20 11:04:39;;;;;;;15.00;9.23;;;;;;;25.16;72.01;95106.56;5073444;28;20523;-83
2023/09/20 11:07:08;;;;;;;13.03;10.10;;;;;;;25.10;69.97;95102.03;5073606;28;20445;-82
2023/09/20 11:09:35;;;;;;;13.43;9.10;;;;;;;25.14;68.61;95104.06;5073435;28;20971;-83
2023/09/20 11:12:11;;;;;;;9.70;8.70;;;;;;;25.22;69.02;95103.84;5073357;28;20452;-83
2023/09/20 11:14:40;;;;;;;6.40;5.90;;;;;;;25.22;66.42;95101.16;5073267;28;20467;-83
2023/09/20 11:17:09;;;;;;;6.97;6.20;;;;;;;25.32;64.72;95098.81;5073234;28;20448;-83
2023/09/20 11:19:38;;;;;;;10.30;7.00;;;;;;;25.42;65.13;95101.03;5073516;28;20788;-83
2023/09/20 11:22:05;;;;;;;12.57;8.77;;;;;;;25.53;64.37;95091.47;5073306;28;20857;-83
2023/09/20 11:24:33;;;;;;;12.10;7.47;;;;;;;25.64;66.46;95082.69;5073105;28;20476;-83
2023/09/20 11:27:00;;;;;;;17.53;8.17;;;;;;;25.61;65.35;95077.75;5073476;28;20438;-83
2023/09/20 11:29:26;;;;;;;7.83;6.97;;;;;;;25.56;66.79;95081.09;5072883;28;21010;-82
2023/09/20 11:31:58;;;;;;;15.50;8.33;;;;;;;25.56;65.68;95070.34;5037761;28;20441;-83
2023/09/20 11:34:28;;;;;;;8.00;6.53;;;;;;;25.58;63.65;95075.50;5073006;28;20446;-83
2023/09/20 11:36:55;;;;;;;8.90;5.97;;;;;;;25.53;64.23;95078.03;5073145;28;20448;-83
2023/09/20 11:39:29;;;;;;;15.73;7.00;;;;;;;25.44;62.39;95066.69;5073176;28;20437;-82
2023/09/20 11:42:01;;;;;;;8.93;7.30;;;;;;;25.47;63.46;95060.09;5073146;28;20513;-83
2023/09/20 11:44:28;;;;;;;8.23;6.90;;;;;;;25.61;63.13;95051.69;5072879;28;20449;-83
2023/09/20 11:46:57;;;;;;;11.07;6.40;;;;;;;25.71;64.78;95050.41;5073239;28;20438;-84
2023/09/20 11:49:24;;;;;;;6.27;5.67;;;;;;;25.73;62.80;95042.94;5072798;28;20810;-83
2023/09/20 11:51:53;;;;;;;7.77;6.53;;;;;;;25.82;61.25;95045.16;5054391;28;20506;-83
2023/09/20 11:54:26;;;;;;;8.40;6.40;;;;;;;25.87;60.78;95034.53;5073095;28;20548;-83
2023/09/20 11:56:58;;;;;;;6.83;6.20;;;;;;;25.81;60.85;95040.81;5072913;28;20542;-83
2023/09/20 11:59:24;;;;;;;11.07;5.63;;;;;;;25.72;58.72;95031.34;5072730;28;20448;-83
2023/09/20 12:01:51;;;;;;;7.07;6.37;;;;;;;25.68;59.14;95034.72;5072798;28;20436;-83